Date,TemperatureHighF,TemperatureAvgF,TemperatureLowF,DewpointHighF,DewpointAvgF,DewpointLowF,HumidityHigh,HumidityAvg,HumidityLow,PressureMaxIn,PressureMinIn,WindSpeedMaxMPH,WindSpeedAvgMPH,GustSpeedMaxMPH,PrecipitationSumIn
2013-7-1,79.6,77.1,73.9,77.5,74.4,71.4,95,91,87,29.98,29.86,9,4,12,2.15
2013-7-2,89.3,78.8,73.7,77.8,73.0,-99.9,97,85,63,30.07,29.94,15,5,19,2.63
2013-7-3,88.8,77.7,72.1,77.4,74.0,70.9,98,89,66,30.10,30.01,20,5,25,3.00
2013-7-4,89.7,78.3,73.5,76.3,73.9,71.7,98,88,62,30.14,30.03,11,5,17,0.40
2013-7-5,89.0,77.9,73.3,76.9,74.3,71.4,96,90,64,30.13,30.06,18,4,24,1.45
2013-7-6,91.0,80.5,75.1,77.0,74.8,70.1,96,84,52,30.10,30.01,11,4,14,0.00
2013-7-7,90.5,82.2,76.7,76.3,74.4,71.9,93,79,55,30.12,30.01,10,4,19,0.40
2013-7-8,92.1,81.6,76.5,77.0,74.6,70.8,95,81,52,30.15,30.06,10,2,16,0.00
2013-7-9,91.8,81.7,74.6,76.9,73.4,69.8,93,78,50,30.16,30.04,7,2,12,0.50
2013-7-10,89.3,80.8,74.6,75.7,73.3,68.4,94,80,55,30.08,29.95,8,2,12,0.06
2013-7-11,87.2,79.9,75.8,78.5,74.6,72.7,95,85,68,30.02,29.92,7,2,12,0.67
2013-7-12,89.0,81.0,75.8,77.5,74.0,71.7,94,80,61,29.95,29.88,6,2,8,0.00
2013-7-13,87.2,78.6,75.8,78.3,74.0,70.8,94,86,69,29.97,29.90,7,1,12,1.24
2013-7-14,85.1,78.7,75.1,79.1,74.5,72.1,94,87,73,30.07,29.94,7,2,12,0.34
2013-7-15,90.1,80.4,74.7,74.8,72.8,70.7,92,79,56,30.10,30.00,7,4,13,0.00
2013-7-16,89.9,79.7,76.7,74.7,72.6,70.0,90,80,54,30.14,30.06,19,5,19,0.01
2013-7-17,90.1,78.5,72.3,76.0,73.2,67.9,96,85,57,30.15,30.05,14,4,21,0.65
2013-7-18,86.7,78.0,73.9,75.0,73.1,71.2,95,86,62,30.11,30.03,11,4,16,0.09
2013-7-19,87.6,78.0,74.0,76.6,73.8,71.9,96,87,67,30.12,30.04,12,3,15,0.54
2013-7-20,89.9,79.9,74.6,78.8,74.5,71.7,95,85,59,30.10,30.01,10,2,17,0.00
2013-7-21,90.5,83.1,75.8,79.3,76.0,73.0,95,80,65,30.11,30.03,8,3,12,0.00
2013-7-22,90.3,83.8,78.1,78.6,76.1,74.6,94,78,63,30.12,30.06,8,3,13,0.00
2013-7-23,89.0,82.3,77.2,77.0,74.8,73.0,91,79,61,30.08,29.96,8,3,14,0.00
2013-7-24,88.2,83.5,80.3,76.8,75.5,74.0,85,77,65,30.00,29.90,9,5,16,0.00
2013-7-25,88.2,83.4,78.1,77.4,75.9,74.0,89,79,65,30.00,29.87,10,6,17,0.48
2013-7-26,90.3,82.5,76.5,80.6,76.4,74.0,96,83,60,30.01,29.95,8,2,14,0.06
2013-7-27,91.4,83.9,77.2,79.0,74.6,69.9,94,75,51,30.00,29.92,6,2,11,0.01
2013-7-28,91.0,81.8,76.5,78.0,74.3,70.6,93,79,61,30.05,29.93,7,1,10,0.00
2013-7-29,92.3,83.1,74.4,77.7,73.7,67.8,93,75,49,30.13,30.01,5,1,8,0.02
2013-7-30,92.7,82.3,74.7,77.9,74.5,69.0,95,79,52,30.16,30.04,7,1,17,0.39
2013-7-31,92.5,82.4,76.3,79.5,75.2,69.6,96,80,50,30.13,29.99,7,2,7,0.04